createdAt,value
2023-05-02T00:00:11.031Z,3.70
2023-05-02T00:01:12.542Z,3.83
2023-05-02T00:02:14.244Z,4.23
2023-05-02T00:03:17.392Z,4.27
2023-05-02T00:04:19.404Z,3.67
2023-05-02T00:05:21.349Z,3.93
2023-05-02T00:06:23.022Z,4.10
2023-05-02T00:07:24.955Z,4.00
2023-05-02T00:08:26.578Z,3.80
2023-05-02T00:09:29.717Z,3.90
2023-05-02T00:10:31.255Z,4.30
2023-05-02T00:11:32.806Z,4.20
2023-05-02T00:12:34.700Z,3.70
2023-05-02T00:13:36.269Z,3.90
2023-05-02T00:14:37.811Z,4.47
2023-05-02T00:15:39.354Z,4.00
2023-05-02T00:16:40.916Z,4.23
2023-05-02T00:17:43.534Z,3.90
2023-05-02T00:18:45.109Z,3.87
2023-05-02T00:19:47.369Z,4.17
2023-05-02T00:20:50.516Z,4.10
2023-05-02T00:21:52.076Z,4.23
2023-05-02T00:22:53.731Z,4.37
2023-05-02T00:23:57.101Z,4.53
2023-05-02T00:24:59.035Z,4.63
2023-05-02T00:26:00.827Z,4.50
2023-05-02T00:27:02.462Z,4.43
2023-05-02T00:28:04.109Z,4.93
2023-05-02T00:29:05.703Z,4.40
2023-05-02T00:30:08.025Z,4.27
2023-05-02T00:31:10.550Z,4.60
2023-05-02T00:32:12.274Z,4.57
2023-05-02T00:33:15.095Z,4.80
2023-05-02T00:34:16.765Z,4.90
2023-05-02T00:35:18.346Z,4.43
2023-05-02T00:36:20.159Z,4.60
2023-05-02T00:37:21.704Z,4.97
2023-05-02T00:38:23.241Z,5.07
2023-05-02T00:39:25.560Z,4.93
2023-05-02T00:40:27.059Z,5.30
2023-05-02T00:41:28.570Z,5.70
2023-05-02T00:42:34.558Z,6.30
2023-05-02T00:43:36.772Z,5.67
2023-05-02T00:44:38.590Z,5.23
2023-05-02T00:45:41.742Z,5.80
2023-05-02T00:46:43.498Z,5.57
2023-05-02T00:47:45.617Z,5.93
2023-05-02T00:48:47.280Z,5.47
2023-05-02T00:49:50.318Z,6.10
2023-05-02T00:50:52.463Z,5.63
2023-05-02T00:51:54.461Z,5.20
2023-05-02T00:52:56.054Z,5.63
2023-05-02T00:53:57.901Z,5.80
2023-05-02T00:55:01.529Z,5.50
2023-05-02T00:56:03.520Z,5.57
2023-05-02T00:57:05.708Z,5.70
2023-05-02T00:58:13.906Z,5.13
2023-05-02T00:59:16.800Z,5.73
2023-05-02T01:00:18.420Z,5.90
2023-05-02T01:01:38.901Z,5.77
2023-05-02T01:02:51.235Z,6.07
2023-05-02T01:04:08.872Z,5.73
2023-05-02T01:05:17.742Z,5.30
2023-05-02T01:06:47.105Z,5.63
2023-05-02T01:07:58.256Z,5.53
2023-05-02T01:09:11.573Z,5.63
2023-05-02T01:10:31.833Z,5.53
2023-05-02T01:11:51.169Z,6.40
2023-05-02T01:13:17.770Z,5.37
2023-05-02T01:14:22.216Z,6.93
2023-05-02T01:15:24.001Z,6.03
2023-05-02T01:16:26.542Z,6.37
2023-05-02T01:17:32.789Z,6.43
2023-05-02T01:18:38.760Z,6.40
2023-05-02T01:19:43.670Z,5.70
2023-05-02T01:20:48.232Z,5.63
2023-05-02T01:21:51.498Z,5.33
2023-05-02T01:22:56.095Z,6.00
2023-05-02T01:24:06.879Z,5.53
2023-05-02T01:25:32.084Z,5.87
2023-05-02T01:26:41.694Z,5.33
2023-05-02T01:27:46.276Z,5.30
2023-05-02T01:29:02.670Z,5.20
2023-05-02T01:30:07.092Z,4.40
2023-05-02T01:31:09.237Z,4.83
2023-05-02T01:32:12.358Z,4.93
2023-05-02T01:33:17.039Z,5.00
2023-05-02T01:34:21.459Z,5.10
2023-05-02T01:35:24.322Z,5.07
2023-05-02T01:36:30.321Z,5.30
2023-05-02T01:37:33.362Z,4.93
2023-05-02T01:38:36.006Z,5.00
2023-05-02T01:39:40.141Z,5.33
2023-05-02T01:40:45.967Z,5.47
2023-05-02T01:41:51.647Z,5.40
2023-05-02T01:42:55.000Z,5.07
2023-05-02T01:43:58.878Z,5.50
2023-05-02T01:45:04.316Z,5.23
2023-05-02T01:46:08.242Z,5.80
2023-05-02T01:47:10.761Z,5.50
2023-05-02T01:48:14.765Z,5.60
2023-05-02T01:49:16.530Z,5.90
2023-05-02T01:50:24.401Z,6.10
2023-05-02T01:51:31.850Z,5.20
2023-05-02T01:52:34.436Z,4.97
2023-05-02T01:53:36.915Z,4.90
2023-05-02T01:54:40.023Z,4.90
2023-05-02T01:55:46.580Z,4.43
2023-05-02T01:56:49.337Z,4.80
2023-05-02T01:57:53.260Z,4.67
2023-05-02T01:58:56.313Z,4.77
2023-05-02T01:59:59.447Z,5.00
2023-05-02T02:01:01.808Z,5.37
2023-05-02T02:02:06.162Z,5.00
2023-05-02T02:03:09.506Z,4.77
2023-05-02T02:04:13.787Z,4.70
2023-05-02T02:05:18.481Z,4.60
2023-05-02T02:06:21.522Z,5.30
2023-05-02T02:07:23.583Z,4.60
2023-05-02T02:08:25.592Z,4.30
2023-05-02T02:09:27.207Z,4.40
2023-05-02T02:10:36.046Z,4.53
2023-05-02T02:11:46.685Z,4.27
2023-05-02T02:13:07.548Z,4.60
2023-05-02T02:14:21.769Z,4.47
2023-05-02T02:15:28.854Z,4.73
2023-05-02T02:16:33.346Z,4.47
2023-05-02T02:17:46.437Z,4.77
2023-05-02T02:18:48.268Z,4.50
2023-05-02T02:19:53.993Z,4.97
2023-05-02T02:20:57.546Z,4.30
2023-05-02T02:22:00.504Z,4.53
2023-05-02T02:23:07.421Z,4.67
2023-05-02T02:24:10.028Z,4.20
2023-05-02T02:25:14.526Z,4.80
2023-05-02T02:26:18.318Z,4.37
2023-05-02T02:27:20.656Z,4.70
2023-05-02T02:28:22.419Z,4.90
2023-05-02T02:29:23.987Z,4.50
2023-05-02T02:30:25.729Z,5.13
2023-05-02T02:31:35.458Z,5.03
2023-05-02T02:32:37.218Z,5.07
2023-05-02T02:33:38.898Z,5.10
2023-05-02T02:34:40.498Z,5.57
2023-05-02T02:35:44.741Z,6.00
2023-05-02T02:36:53.699Z,5.10
2023-05-02T02:38:09.740Z,5.20
2023-05-02T02:39:20.043Z,4.83
2023-05-02T02:40:49.702Z,5.23
2023-05-02T02:42:13.932Z,5.13
2023-05-02T02:43:33.307Z,5.23
2023-05-02T02:45:05.009Z,5.30
2023-05-02T02:46:21.446Z,5.13
2023-05-02T02:47:32.322Z,5.13
2023-05-02T02:48:52.191Z,6.03
2023-05-02T02:49:59.979Z,5.67
2023-05-02T02:51:01.842Z,5.23
2023-05-02T02:52:15.670Z,5.40
2023-05-02T02:53:20.697Z,5.10
2023-05-02T02:54:51.559Z,5.50
2023-05-02T02:56:05.178Z,5.40
2023-05-02T02:57:15.762Z,5.53
2023-05-02T02:58:55.329Z,5.80
2023-05-02T03:00:11.108Z,5.50
2023-05-02T03:01:18.053Z,5.60
2023-05-02T03:02:23.352Z,5.57
2023-05-02T03:03:29.308Z,5.50
2023-05-02T03:04:32.812Z,5.70
2023-05-02T03:05:34.889Z,5.70
2023-05-02T03:06:37.024Z,5.67
2023-05-02T03:07:38.649Z,5.43
2023-05-02T03:08:43.954Z,5.27
2023-05-02T03:09:47.679Z,5.67
2023-05-02T03:10:49.176Z,5.77
2023-05-02T03:11:50.943Z,5.90
2023-05-02T03:12:55.690Z,5.60
2023-05-02T03:13:57.539Z,5.90
2023-05-02T03:15:31.478Z,6.13
2023-05-02T03:16:38.255Z,5.77
2023-05-02T03:17:39.903Z,5.70
2023-05-02T03:18:41.569Z,6.07
2023-05-02T03:19:43.211Z,6.03
2023-05-02T03:20:44.744Z,6.50
2023-05-02T03:21:46.788Z,5.70
2023-05-02T03:22:48.384Z,6.10
2023-05-02T03:23:49.912Z,6.40
2023-05-02T03:24:51.489Z,6.47
2023-05-02T03:25:53.030Z,6.13
2023-05-02T03:26:59.166Z,6.00
2023-05-02T03:28:00.778Z,6.00
2023-05-02T03:29:02.345Z,6.33
2023-05-02T03:30:04.530Z,5.90
2023-05-02T03:31:06.184Z,6.60
2023-05-02T03:32:07.928Z,6.30
2023-05-02T03:33:10.384Z,5.93
2023-05-02T03:34:12.029Z,6.30
2023-05-02T03:35:13.937Z,6.67
2023-05-02T03:36:16.290Z,6.53
2023-05-02T03:37:18.058Z,6.33
2023-05-02T03:38:19.773Z,6.57
2023-05-02T03:39:21.417Z,6.97
2023-05-02T03:40:23.007Z,6.63
2023-05-02T03:41:27.316Z,6.73
2023-05-02T03:42:28.907Z,6.70
2023-05-02T03:43:30.896Z,6.40
2023-05-02T03:44:32.453Z,6.37
2023-05-02T03:45:34.846Z,7.00
2023-05-02T03:46:36.465Z,7.00
2023-05-02T03:47:38.147Z,8.40
2023-05-02T03:48:39.817Z,8.37
2023-05-02T03:49:41.589Z,7.13
2023-05-02T03:50:43.730Z,7.47
2023-05-02T03:51:45.292Z,7.30
2023-05-02T03:52:46.952Z,7.70
2023-05-02T03:53:48.474Z,8.20
2023-05-02T03:54:50.241Z,8.17
2023-05-02T03:55:51.920Z,8.20
2023-05-02T03:56:54.657Z,7.93
2023-05-02T03:57:56.621Z,8.40
2023-05-02T03:58:58.225Z,8.53
2023-05-02T04:00:00.671Z,7.27
2023-05-02T04:01:02.543Z,7.50
2023-05-02T04:02:04.184Z,7.20
2023-05-02T04:03:06.070Z,7.13
2023-05-02T04:04:07.843Z,7.23
2023-05-02T04:05:09.660Z,7.00
2023-05-02T04:06:11.321Z,7.00
2023-05-02T04:07:18.246Z,6.53
2023-05-02T04:08:19.941Z,6.17
2023-05-02T04:09:25.420Z,6.80
2023-05-02T04:10:27.103Z,6.43
2023-05-02T04:11:28.689Z,7.40
2023-05-02T04:12:30.794Z,8.20
2023-05-02T04:13:32.363Z,6.87
2023-05-02T04:14:33.898Z,7.13
2023-05-02T04:15:35.656Z,6.70
2023-05-02T04:16:37.241Z,6.97
2023-05-02T04:17:39.181Z,6.93
2023-05-02T04:18:40.739Z,6.70
2023-05-02T04:19:42.966Z,7.00
2023-05-02T04:20:47.444Z,7.07
2023-05-02T04:21:49.013Z,7.27
2023-05-02T04:22:50.767Z,6.70
2023-05-02T04:23:52.771Z,6.70
2023-05-02T04:24:54.701Z,6.60
2023-05-02T04:25:56.559Z,6.83
2023-05-02T04:26:58.291Z,7.37
2023-05-02T04:27:59.803Z,6.80
2023-05-02T04:29:01.440Z,6.50
2023-05-02T04:30:03.742Z,7.60
2023-05-02T04:31:05.846Z,8.57
2023-05-02T04:32:07.763Z,8.33
2023-05-02T04:33:09.417Z,8.20
2023-05-02T04:34:10.969Z,7.53
2023-05-02T04:35:12.602Z,7.80
2023-05-02T04:36:14.461Z,8.73
2023-05-02T04:37:16.276Z,8.47
2023-05-02T04:38:17.873Z,8.50
2023-05-02T04:39:19.460Z,8.23
2023-05-02T04:40:21.174Z,7.80
2023-05-02T04:41:23.408Z,7.83
2023-05-02T04:42:25.091Z,7.60
2023-05-02T04:43:26.636Z,8.13
2023-05-02T04:44:28.252Z,8.07
2023-05-02T04:45:30.047Z,7.33
2023-05-02T04:46:31.623Z,7.80
2023-05-02T04:47:33.397Z,7.40
2023-05-02T04:48:34.918Z,7.10
2023-05-02T04:49:36.679Z,7.37
2023-05-02T04:50:38.295Z,7.23
2023-05-02T04:51:40.356Z,7.60
2023-05-02T04:52:42.223Z,7.37
2023-05-02T04:53:43.729Z,7.77
2023-05-02T04:54:45.321Z,7.27
2023-05-02T04:55:46.875Z,7.23
2023-05-02T04:56:48.637Z,6.93
2023-05-02T04:57:51.605Z,7.50
2023-05-02T04:58:53.262Z,7.27
2023-05-02T04:59:55.195Z,6.90
2023-05-02T05:00:56.780Z,6.73
2023-05-02T05:01:58.860Z,7.00
2023-05-02T05:03:01.743Z,6.20
2023-05-02T05:04:03.972Z,6.70
2023-05-02T05:05:06.480Z,6.33
2023-05-02T05:06:08.222Z,6.40
2023-05-02T05:07:09.833Z,6.07
2023-05-02T05:08:11.685Z,6.43
2023-05-02T05:09:13.274Z,6.47
2023-05-02T05:10:14.855Z,5.90
2023-05-02T05:11:16.435Z,6.07
2023-05-02T05:12:18.750Z,5.97
2023-05-02T05:13:20.387Z,6.37
2023-05-02T05:14:22.473Z,6.90
2023-05-02T05:15:25.986Z,6.00
2023-05-02T05:16:27.561Z,6.50
2023-05-02T05:17:29.204Z,5.80
2023-05-02T05:18:31.649Z,5.77
2023-05-02T05:19:33.206Z,5.27
2023-05-02T05:20:34.862Z,5.50
2023-05-02T05:21:36.968Z,5.67
2023-05-02T05:22:42.413Z,5.50
2023-05-02T05:23:46.198Z,5.17
2023-05-02T05:24:52.794Z,5.40
2023-05-02T05:25:54.366Z,4.73
2023-05-02T05:26:55.906Z,5.13
2023-05-02T05:27:57.435Z,5.03
2023-05-02T05:28:59.351Z,5.37
2023-05-02T05:30:01.552Z,5.50
2023-05-02T05:31:11.296Z,4.80
2023-05-02T05:32:12.952Z,5.33
2023-05-02T05:33:15.602Z,5.40
2023-05-02T05:34:17.986Z,5.00
2023-05-02T05:35:19.631Z,4.70
2023-05-02T05:36:23.453Z,4.77
2023-05-02T05:37:25.331Z,4.57
2023-05-02T05:38:26.854Z,4.67
2023-05-02T05:39:28.360Z,4.70
2023-05-02T05:40:29.878Z,5.10
2023-05-02T05:41:31.452Z,4.80
2023-05-02T05:42:33.066Z,4.97
2023-05-02T05:43:37.825Z,4.70
2023-05-02T05:44:40.110Z,4.63
2023-05-02T05:45:41.668Z,5.07
2023-05-02T05:46:43.206Z,4.93
2023-05-02T05:47:44.931Z,4.77
2023-05-02T05:48:46.441Z,4.53
2023-05-02T05:49:48.841Z,4.57
2023-05-02T05:50:52.010Z,4.93
2023-05-02T05:51:53.609Z,4.70
2023-05-02T05:52:55.205Z,4.80
2023-05-02T05:53:56.715Z,4.70
2023-05-02T05:54:58.276Z,4.50
2023-05-02T05:56:00.095Z,4.37
2023-05-02T05:57:01.684Z,3.93
2023-05-02T05:58:03.477Z,4.40
2023-05-02T05:59:04.981Z,4.80
2023-05-02T06:00:11.099Z,4.17
2023-05-02T06:01:12.952Z,4.50
2023-05-02T06:02:15.502Z,5.87
2023-05-02T06:03:17.366Z,5.33
2023-05-02T06:04:19.017Z,5.40
2023-05-02T06:05:20.797Z,5.50
2023-05-02T06:06:22.378Z,5.40
2023-05-02T06:07:23.988Z,4.90
2023-05-02T06:08:25.570Z,4.70
2023-05-02T06:09:27.230Z,4.77
2023-05-02T06:10:28.828Z,4.67
2023-05-02T06:11:30.437Z,5.10
2023-05-02T06:12:32.036Z,5.20
2023-05-02T06:13:33.665Z,4.87
2023-05-02T06:14:35.300Z,5.17
2023-05-02T06:15:36.925Z,5.53
2023-05-02T06:16:38.680Z,5.07
2023-05-02T06:17:40.810Z,5.30
2023-05-02T06:18:42.499Z,5.10
2023-05-02T06:19:44.032Z,5.10
2023-05-02T06:20:45.598Z,4.80
2023-05-02T06:21:47.344Z,4.73
2023-05-02T06:22:48.884Z,4.77
2023-05-02T06:23:50.910Z,5.22
2023-05-02T06:24:52.430Z,5.07
2023-05-02T06:25:54.228Z,4.93
2023-05-02T06:26:55.790Z,4.18
2023-05-02T06:27:57.340Z,4.85
2023-05-02T06:28:58.907Z,4.82
2023-05-02T06:30:00.771Z,5.18
2023-05-02T06:31:06.463Z,5.18
2023-05-02T06:32:08.131Z,9.18
2023-05-02T06:33:09.838Z,5.05
2023-05-02T06:34:11.548Z,5.22
2023-05-02T06:35:13.170Z,5.10
2023-05-02T06:36:14.900Z,4.80
2023-05-02T06:37:16.514Z,4.90
2023-05-02T06:38:18.666Z,4.40
2023-05-02T06:39:20.240Z,4.10
2023-05-02T06:40:21.804Z,4.13
2023-05-02T06:41:23.541Z,4.60
2023-05-02T06:42:25.135Z,4.50
2023-05-02T06:43:26.745Z,4.50
2023-05-02T06:44:28.441Z,4.53
2023-05-02T06:45:30.096Z,4.28
2023-05-02T06:46:31.958Z,3.75
2023-05-02T06:47:33.785Z,4.40
2023-05-02T06:48:38.633Z,3.90
2023-05-02T06:49:40.324Z,3.60
2023-05-02T06:50:42.308Z,3.72
2023-05-02T06:51:43.910Z,4.07
2023-05-02T06:52:45.525Z,7.32
2023-05-02T06:53:47.038Z,7.18
2023-05-02T06:54:48.606Z,6.95
2023-05-02T06:55:50.405Z,6.07
2023-05-02T06:56:52.281Z,5.63
2023-05-02T06:57:54.774Z,5.70
2023-05-02T06:58:56.318Z,5.18
2023-05-02T06:59:58.826Z,5.57
2023-05-02T07:01:00.738Z,5.50
2023-05-02T07:02:03.683Z,5.88
2023-05-02T07:03:06.809Z,5.45
2023-05-02T07:04:08.473Z,5.15
2023-05-02T07:05:10.595Z,5.00
2023-05-02T07:06:12.241Z,5.90
2023-05-02T07:07:13.926Z,5.50
2023-05-02T07:08:15.529Z,5.15
2023-05-02T07:09:17.464Z,5.05
2023-05-02T07:10:19.008Z,4.90
2023-05-02T07:11:21.789Z,4.88
2023-05-02T07:12:23.303Z,4.65
2023-05-02T07:13:24.852Z,4.13
2023-05-02T07:14:26.382Z,4.13
2023-05-02T07:15:27.965Z,4.55
2023-05-02T07:16:29.706Z,4.38
2023-05-02T07:17:32.076Z,3.80
2023-05-02T07:18:33.685Z,3.90
2023-05-02T07:19:35.329Z,4.10
2023-05-02T07:20:38.805Z,5.50
2023-05-02T07:21:40.503Z,4.50
2023-05-02T07:22:42.652Z,4.38
2023-05-02T07:23:44.708Z,4.30
2023-05-02T07:24:46.372Z,4.28
2023-05-02T07:25:48.393Z,3.90
2023-05-02T07:26:49.983Z,4.10
2023-05-02T07:27:51.568Z,4.65
2023-05-02T07:28:53.236Z,7.85
2023-05-02T07:29:54.881Z,4.72
2023-05-02T07:30:56.461Z,5.50
2023-05-02T07:31:58.043Z,5.63
2023-05-02T07:32:59.632Z,5.43
2023-05-02T07:34:01.308Z,5.32
2023-05-02T07:35:02.925Z,5.22
2023-05-02T07:36:04.845Z,5.28
2023-05-02T07:37:06.503Z,5.43
2023-05-02T07:38:08.120Z,5.20
2023-05-02T07:39:10.095Z,4.70
2023-05-02T07:40:11.786Z,4.57
2023-05-02T07:41:14.850Z,16.52
2023-05-02T07:42:16.499Z,4.88
2023-05-02T07:43:18.008Z,4.82
2023-05-02T07:44:19.783Z,4.40
2023-05-02T07:45:21.413Z,4.60
2023-05-02T07:46:23.795Z,5.05
2023-05-02T07:47:26.606Z,4.80
2023-05-02T07:48:28.321Z,5.10
2023-05-02T07:49:31.156Z,4.28
2023-05-02T07:50:32.771Z,3.70
2023-05-02T07:51:34.407Z,4.35
2023-05-02T07:52:36.025Z,3.17
2023-05-02T07:53:37.674Z,3.97
2023-05-02T07:54:39.219Z,3.83
2023-05-02T07:55:40.770Z,4.50
2023-05-02T07:56:43.017Z,4.32
2023-05-02T07:57:44.641Z,4.05
2023-05-02T07:58:46.181Z,3.60
2023-05-02T07:59:47.984Z,2.78
2023-05-02T08:00:50.565Z,3.47
2023-05-02T08:01:52.180Z,3.33
2023-05-02T08:02:53.943Z,2.80
2023-05-02T08:03:56.408Z,2.78
2023-05-02T08:04:58.211Z,2.60
2023-05-02T08:05:59.792Z,2.33
2023-05-02T08:07:01.507Z,2.40
2023-05-02T08:08:04.060Z,2.72
2023-05-02T08:09:05.689Z,7.60
2023-05-02T08:10:07.981Z,2.67
2023-05-02T08:11:09.498Z,2.50
2023-05-02T08:12:11.121Z,2.53
2023-05-02T08:13:13.191Z,4.65
2023-05-02T08:14:16.344Z,2.28
2023-05-02T08:15:17.904Z,2.42
2023-05-02T08:16:20.040Z,2.40
2023-05-02T08:17:21.888Z,2.08
2023-05-02T08:18:24.837Z,2.85
2023-05-02T08:19:26.874Z,3.25
2023-05-02T08:20:28.460Z,1.90
2023-05-02T08:21:31.209Z,2.35
2023-05-02T08:22:32.885Z,2.65
2023-05-02T08:23:34.529Z,2.47
2023-05-02T08:24:36.071Z,30.70
2023-05-02T08:25:38.054Z,3.90
2023-05-02T08:26:39.571Z,2.70
2023-05-02T08:27:41.131Z,3.17
2023-05-02T08:28:42.720Z,2.30
2023-05-02T08:29:44.266Z,2.10
2023-05-02T08:30:45.971Z,2.25
2023-05-02T08:31:47.512Z,2.22
2023-05-02T08:32:49.158Z,2.55
2023-05-02T08:33:51.193Z,2.00
2023-05-02T08:34:59.006Z,2.22
2023-05-02T08:36:00.567Z,2.90
2023-05-02T08:37:02.124Z,2.60
2023-05-02T08:38:04.235Z,2.50
2023-05-02T08:39:08.050Z,2.05
2023-05-02T08:40:12.502Z,2.45
2023-05-02T08:41:17.344Z,2.20
2023-05-02T08:42:20.732Z,2.40
2023-05-02T08:43:22.965Z,2.30
2023-05-02T08:44:24.501Z,2.33
2023-05-02T08:45:26.733Z,2.40
2023-05-02T08:46:29.082Z,1.90
2023-05-02T08:47:32.511Z,2.20
2023-05-02T08:48:37.172Z,2.35
2023-05-02T08:49:39.259Z,2.50
2023-05-02T08:50:44.528Z,2.15
2023-05-02T08:51:48.607Z,2.15
2023-05-02T08:52:52.050Z,2.15
2023-05-02T08:53:55.339Z,2.20
2023-05-02T08:54:57.590Z,2.30
2023-05-02T08:56:00.399Z,1.80
2023-05-02T08:57:04.276Z,2.17
2023-05-02T08:58:06.722Z,2.70
2023-05-02T08:59:08.282Z,2.33
2023-05-02T09:00:10.332Z,2.50
2023-05-02T09:01:15.878Z,2.15
2023-05-02T09:02:43.009Z,1.85
2023-05-02T09:03:46.807Z,2.00
2023-05-02T09:04:54.150Z,3.05
2023-05-02T09:06:05.232Z,4.68
2023-05-02T09:07:06.835Z,2.50
2023-05-02T09:08:09.273Z,2.45
2023-05-02T09:09:11.100Z,2.30
2023-05-02T09:10:13.010Z,2.15
2023-05-02T09:11:16.254Z,2.15
2023-05-02T09:12:17.936Z,2.53
2023-05-02T09:13:49.259Z,2.10
2023-05-02T09:15:09.432Z,2.15
2023-05-02T09:16:13.887Z,2.70
2023-05-02T09:17:15.644Z,2.00
2023-05-02T09:18:21.125Z,2.08
2023-05-02T09:19:26.707Z,2.22
2023-05-02T09:20:28.569Z,2.30
2023-05-02T09:21:40.315Z,2.05
2023-05-02T09:22:50.752Z,2.40
2023-05-02T09:23:57.912Z,2.17
2023-05-02T09:24:59.716Z,1.83
2023-05-02T09:26:01.970Z,2.25
2023-05-02T09:27:04.959Z,2.25
2023-05-02T09:28:06.534Z,7.20
2023-05-02T09:29:08.327Z,1.98
2023-05-02T09:30:23.605Z,2.40
2023-05-02T09:31:49.854Z,2.10
2023-05-02T09:32:51.367Z,2.17
2023-05-02T09:33:54.195Z,2.35
2023-05-02T09:35:06.619Z,2.10
2023-05-02T09:36:10.247Z,1.95
2023-05-02T09:37:31.923Z,2.60
2023-05-02T09:38:33.876Z,2.22
2023-05-02T09:39:35.416Z,3.10
2023-05-02T09:40:37.903Z,2.03
2023-05-02T09:41:49.417Z,2.20
2023-05-02T09:42:52.495Z,2.28
2023-05-02T09:43:57.964Z,2.30
2023-05-02T09:44:59.663Z,2.22
2023-05-02T09:46:06.922Z,2.03
2023-05-02T09:47:08.929Z,2.15
2023-05-02T09:48:11.971Z,2.13
2023-05-02T09:49:14.915Z,2.20
2023-05-02T09:50:38.233Z,1.92
2023-05-02T09:51:40.168Z,2.20
2023-05-02T09:52:41.903Z,1.98
2023-05-02T09:53:45.165Z,2.17
2023-05-02T09:54:47.563Z,2.20
2023-05-02T09:55:49.189Z,2.50
2023-05-02T09:56:56.732Z,2.10
2023-05-02T09:57:59.846Z,2.03
2023-05-02T09:59:15.050Z,2.67
2023-05-02T10:00:19.572Z,2.28
2023-05-02T10:01:21.652Z,2.13
2023-05-02T10:02:24.663Z,2.15
2023-05-02T10:03:27.684Z,2.00
2023-05-02T10:04:31.613Z,2.00
2023-05-02T10:05:38.886Z,2.30
2023-05-02T10:06:41.025Z,1.90
2023-05-02T10:07:46.234Z,2.40
2023-05-02T10:08:48.558Z,2.40
2023-05-02T10:09:54.533Z,2.03
2023-05-02T10:10:59.086Z,2.10
2023-05-02T10:12:08.098Z,2.22
2023-05-02T10:13:10.556Z,2.38
2023-05-02T10:14:12.892Z,1.80
2023-05-02T10:15:17.075Z,3.08
2023-05-02T10:16:26.946Z,2.10
2023-05-02T10:17:31.717Z,1.90
2023-05-02T10:18:46.986Z,2.08
2023-05-02T10:20:00.658Z,2.17
2023-05-02T10:21:08.186Z,2.40
2023-05-02T10:22:12.397Z,2.00
2023-05-02T10:23:15.712Z,2.15
2023-05-02T10:24:17.460Z,1.80
2023-05-02T10:25:19.389Z,1.83
2023-05-02T10:26:23.031Z,2.58
2023-05-02T10:27:24.714Z,2.80
2023-05-02T10:28:27.670Z,2.05
2023-05-02T10:29:29.762Z,1.50
2023-05-02T10:30:31.833Z,1.85
2023-05-02T10:31:35.128Z,2.20
2023-05-02T10:32:38.005Z,2.42
2023-05-02T10:33:40.255Z,2.05
2023-05-02T10:34:41.965Z,2.17
2023-05-02T10:35:49.385Z,1.80
2023-05-02T10:36:50.936Z,1.88
2023-05-02T10:37:53.650Z,1.90
2023-05-02T10:38:55.603Z,1.90
2023-05-02T10:39:57.237Z,1.83
2023-05-02T10:41:07.294Z,1.73
2023-05-02T10:42:09.532Z,1.95
2023-05-02T10:43:16.271Z,1.80
2023-05-02T10:44:19.496Z,1.75
2023-05-02T10:45:34.734Z,1.73
2023-05-02T10:46:38.416Z,1.70
2023-05-02T10:47:40.737Z,1.73
2023-05-02T10:48:42.449Z,1.50
2023-05-02T10:49:54.970Z,2.15
2023-05-02T10:50:58.696Z,1.60
2023-05-02T10:52:26.549Z,1.77
2023-05-02T10:53:40.320Z,1.90
2023-05-02T10:54:42.031Z,1.60
2023-05-02T10:55:44.433Z,1.30
2023-05-02T10:57:15.055Z,1.75
2023-05-02T10:58:23.035Z,1.30
2023-05-02T10:59:32.279Z,1.42
2023-05-02T11:00:34.800Z,2.08
2023-05-02T11:01:38.175Z,1.60
2023-05-02T11:02:49.360Z,2.90
2023-05-02T11:03:58.940Z,1.60
2023-05-02T11:05:03.061Z,1.73
2023-05-02T11:06:07.082Z,1.73
2023-05-02T11:07:14.774Z,1.98
2023-05-02T11:08:16.806Z,2.03
2023-05-02T11:09:22.196Z,1.63
2023-05-02T11:10:27.522Z,1.70
2023-05-02T11:11:41.116Z,1.88
2023-05-02T11:12:49.327Z,1.73
2023-05-02T11:13:51.583Z,1.67
2023-05-02T11:14:53.210Z,1.77
2023-05-02T11:15:55.962Z,1.77
2023-05-02T11:16:57.696Z,1.02
2023-05-02T11:18:11.905Z,2.95
2023-05-02T11:19:13.639Z,1.70
2023-05-02T11:20:19.438Z,1.45
2023-05-02T11:21:31.986Z,1.80
2023-05-02T11:22:34.414Z,1.98
2023-05-02T11:23:36.995Z,1.50
2023-05-02T11:24:42.529Z,1.60
2023-05-02T11:25:51.202Z,1.98
2023-05-02T11:26:55.243Z,2.30
2023-05-02T11:27:56.912Z,1.92
2023-05-02T11:28:58.557Z,1.90
2023-05-02T11:30:01.646Z,1.90
2023-05-02T11:31:06.924Z,1.65
2023-05-02T11:32:09.669Z,2.08
2023-05-02T11:33:13.049Z,1.80
2023-05-02T11:34:15.053Z,1.70
2023-05-02T11:35:20.208Z,1.48
2023-05-02T11:36:29.837Z,1.90
2023-05-02T11:37:31.519Z,1.98
2023-05-02T11:38:38.337Z,1.70
2023-05-02T11:39:40.826Z,1.67
2023-05-02T11:40:51.126Z,1.73
2023-05-02T11:41:54.689Z,5.15
2023-05-02T11:42:58.016Z,2.00
2023-05-02T11:44:05.652Z,1.85
2023-05-02T11:45:07.641Z,1.90
2023-05-02T11:46:09.453Z,1.90
2023-05-02T11:47:11.106Z,2.00
2023-05-02T11:48:14.624Z,1.60
2023-05-02T11:49:16.457Z,1.60
2023-05-02T11:50:18.283Z,1.90
2023-05-02T11:51:23.684Z,1.85
2023-05-02T11:52:25.594Z,1.90
2023-05-02T11:53:29.544Z,2.97
2023-05-02T11:54:31.513Z,1.83
2023-05-02T11:55:33.147Z,1.77
2023-05-02T11:56:34.850Z,2.00
2023-05-02T11:57:36.935Z,2.38
2023-05-02T11:58:38.533Z,2.30
2023-05-02T11:59:57.502Z,1.67
2023-05-02T12:01:11.914Z,1.88
2023-05-02T12:02:13.473Z,1.85
2023-05-02T12:03:23.875Z,2.25
2023-05-02T12:04:26.498Z,1.60
2023-05-02T12:05:30.429Z,1.70
2023-05-02T12:06:32.296Z,1.80
2023-05-02T12:07:50.701Z,4.10
2023-05-02T12:09:09.621Z,1.42
2023-05-02T12:10:13.115Z,1.80
2023-05-02T12:11:16.148Z,1.90
2023-05-02T12:12:21.879Z,1.90
2023-05-02T12:13:26.379Z,1.98
2023-05-02T12:14:33.585Z,1.88
2023-05-02T12:15:36.420Z,1.90
2023-05-02T12:16:38.341Z,1.80
2023-05-02T12:17:46.090Z,1.75
2023-05-02T12:18:48.151Z,4.40
2023-05-02T12:19:50.683Z,1.70
2023-05-02T12:20:53.106Z,2.08
2023-05-02T12:21:54.830Z,1.77
2023-05-02T12:22:57.491Z,1.80
2023-05-02T12:24:00.438Z,1.83
2023-05-02T12:25:04.537Z,2.65
2023-05-02T12:26:25.141Z,2.33
2023-05-02T12:27:27.419Z,2.13
2023-05-02T12:28:28.980Z,2.10
2023-05-02T12:29:41.271Z,1.92
2023-05-02T12:30:43.032Z,1.60
2023-05-02T12:31:51.666Z,1.77
2023-05-02T12:33:01.501Z,1.98
2023-05-02T12:34:03.130Z,2.10
2023-05-02T12:35:05.210Z,3.53
2023-05-02T12:36:08.642Z,2.00
2023-05-02T12:37:10.216Z,1.70
2023-05-02T12:38:21.179Z,2.15
2023-05-02T12:39:43.325Z,2.28
2023-05-02T12:40:53.475Z,2.28
2023-05-02T12:41:55.867Z,1.90
2023-05-02T12:43:04.121Z,2.13
2023-05-02T12:44:07.742Z,2.17
2023-05-02T12:45:18.773Z,2.30
2023-05-02T12:46:20.619Z,2.03
2023-05-02T12:47:28.398Z,2.17
2023-05-02T12:48:31.166Z,1.70
2023-05-02T12:49:35.735Z,1.80
2023-05-02T12:50:40.823Z,2.00
2023-05-02T12:51:56.586Z,2.17
2023-05-02T12:53:01.905Z,2.15
2023-05-02T12:54:04.196Z,2.00
2023-05-02T12:55:26.535Z,2.22
2023-05-02T12:56:32.296Z,2.25
2023-05-02T12:57:34.174Z,2.30
2023-05-02T12:58:46.700Z,2.00
2023-05-02T12:59:48.268Z,2.00
2023-05-02T13:00:52.852Z,10.32
2023-05-02T13:01:57.318Z,2.22
2023-05-02T13:03:00.189Z,2.10
2023-05-02T13:04:15.324Z,1.90
2023-05-02T13:05:21.527Z,2.03
2023-05-02T13:06:24.965Z,1.70
2023-05-02T13:07:26.671Z,2.03
2023-05-02T13:08:28.249Z,1.90
2023-05-02T13:09:29.791Z,1.65
2023-05-02T13:10:31.427Z,2.00
2023-05-02T13:11:33.054Z,1.55
2023-05-02T13:12:37.227Z,1.90
2023-05-02T13:13:38.764Z,1.80
2023-05-02T13:14:40.479Z,1.80
2023-05-02T13:15:42.021Z,1.77
2023-05-02T13:16:43.674Z,2.42
2023-05-02T13:17:45.767Z,1.98
2023-05-02T13:18:48.082Z,2.00
2023-05-02T13:20:01.339Z,2.17
2023-05-02T13:21:05.028Z,3.25
2023-05-02T13:22:06.698Z,1.90
2023-05-02T13:23:08.401Z,2.15
2023-05-02T13:24:10.029Z,2.10
2023-05-02T13:25:12.290Z,2.17
2023-05-02T13:26:14.056Z,2.03
2023-05-02T13:27:18.380Z,1.95
2023-05-02T13:28:19.945Z,1.80
2023-05-02T13:29:21.555Z,2.03
2023-05-02T13:30:23.808Z,3.05
2023-05-02T13:31:25.607Z,2.35
2023-05-02T13:32:28.610Z,2.05
2023-05-02T13:33:30.445Z,2.42
2023-05-02T13:34:32.005Z,2.00
2023-05-02T13:35:35.402Z,1.90
2023-05-02T13:36:40.718Z,2.85
2023-05-02T13:37:42.324Z,1.75
2023-05-02T13:38:44.279Z,2.80
2023-05-02T13:39:46.231Z,1.90
2023-05-02T13:40:48.112Z,2.15
2023-05-02T13:41:49.722Z,1.90
2023-05-02T13:42:51.463Z,1.60
2023-05-02T13:43:53.933Z,2.53
2023-05-02T13:44:55.591Z,2.08
2023-05-02T13:45:57.558Z,2.20
2023-05-02T13:46:59.239Z,1.95
2023-05-02T13:48:00.811Z,2.00
2023-05-02T13:49:05.416Z,2.10
2023-05-02T13:50:07.881Z,2.20
2023-05-02T13:51:09.615Z,1.90
2023-05-02T13:52:11.326Z,3.90
2023-05-02T13:53:12.864Z,1.90
2023-05-02T13:54:15.340Z,2.08
2023-05-02T13:55:17.033Z,2.10
2023-05-02T13:56:18.906Z,1.60
2023-05-02T13:57:20.560Z,8.38
2023-05-02T13:58:22.263Z,1.92
2023-05-02T13:59:23.799Z,2.20
2023-05-02T14:00:25.371Z,1.63
2023-05-02T14:01:28.248Z,1.90
2023-05-02T14:02:30.033Z,1.80
2023-05-02T14:03:31.750Z,2.05
2023-05-02T14:04:33.451Z,2.00
2023-05-02T14:05:36.574Z,2.60
2023-05-02T14:06:38.491Z,2.13
2023-05-02T14:07:40.326Z,1.60
2023-05-02T14:08:41.978Z,2.00
2023-05-02T14:09:44.490Z,1.95
2023-05-02T14:10:46.084Z,1.92
2023-05-02T14:11:48.710Z,2.10
2023-05-02T14:12:50.224Z,1.67